createdAt,value
2019-03-25T00:02:46.655Z,18.77
2019-03-25T00:05:50.467Z,20.13
2019-03-25T00:09:04.831Z,19.50
2019-03-25T00:12:00.277Z,16.80
2019-03-25T00:15:06.760Z,12.97
2019-03-25T00:18:10.622Z,13.33
2019-03-25T00:21:14.804Z,12.77
2019-03-25T00:24:18.663Z,12.13
2019-03-25T00:27:22.663Z,11.67
2019-03-25T00:30:26.527Z,11.57
2019-03-25T00:33:30.364Z,12.57
2019-03-25T00:36:34.223Z,14.27
2019-03-25T00:39:38.111Z,15.43
2019-03-25T00:42:42.016Z,13.73
2019-03-25T00:45:45.870Z,13.00
2019-03-25T00:48:49.726Z,12.67
2019-03-25T00:51:53.617Z,11.80
2019-03-25T00:54:57.461Z,13.10
2019-03-25T00:58:01.337Z,12.10
2019-03-25T01:01:05.160Z,11.63
2019-03-25T01:04:09.403Z,11.03
2019-03-25T01:07:13.311Z,14.10
2019-03-25T01:10:17.173Z,14.97
2019-03-25T01:13:21.043Z,13.07
2019-03-25T01:16:24.861Z,12.27
2019-03-25T01:19:28.721Z,11.60
2019-03-25T01:22:32.561Z,13.00
2019-03-25T01:25:36.431Z,13.53
2019-03-25T01:28:40.267Z,12.03
2019-03-25T01:31:44.145Z,12.27
2019-03-25T01:34:48.069Z,12.17
2019-03-25T01:37:51.952Z,11.27
2019-03-25T01:40:55.811Z,10.97
2019-03-25T01:43:59.651Z,10.97
2019-03-25T01:47:03.522Z,11.57
2019-03-25T01:50:07.756Z,10.97
2019-03-25T01:53:11.621Z,12.00
2019-03-25T01:56:15.460Z,11.43
2019-03-25T01:59:19.321Z,11.83
2019-03-25T02:02:23.983Z,11.17
2019-03-25T02:05:27.855Z,11.20
2019-03-25T02:08:31.731Z,11.00
2019-03-25T02:11:35.571Z,10.97
2019-03-25T02:14:39.447Z,12.10
2019-03-25T02:17:43.281Z,10.67
2019-03-25T02:20:47.172Z,11.23
2019-03-25T02:23:51.011Z,11.50
2019-03-25T02:26:54.887Z,11.77
2019-03-25T02:29:58.731Z,11.47
2019-03-25T02:33:02.605Z,10.83
2019-03-25T02:36:06.464Z,10.43
2019-03-25T02:39:10.317Z,12.33
2019-03-25T02:42:14.194Z,11.83
2019-03-25T02:45:18.043Z,11.97
2019-03-25T02:48:21.901Z,11.80
2019-03-25T02:51:25.740Z,12.67
2019-03-25T02:54:29.607Z,11.40
2019-03-25T02:57:33.447Z,11.43
2019-03-25T03:00:38.868Z,12.67
2019-03-25T03:03:42.812Z,13.23
2019-03-25T03:06:46.662Z,13.23
2019-03-25T03:09:50.510Z,13.93
2019-03-25T03:12:54.332Z,14.77
2019-03-25T03:15:58.512Z,16.07
2019-03-25T03:19:02.333Z,16.33
2019-03-25T03:22:06.183Z,18.13
2019-03-25T03:25:11.486Z,19.23
2019-03-25T03:28:15.321Z,19.20
2019-03-25T03:31:19.178Z,19.60
2019-03-25T03:34:23.068Z,20.27
2019-03-25T03:37:27.038Z,21.90
2019-03-25T03:40:30.887Z,21.30
2019-03-25T03:43:34.838Z,22.47
2019-03-25T03:46:38.682Z,21.93
2019-03-25T03:49:42.577Z,23.63
2019-03-25T03:52:46.401Z,22.63
2019-03-25T03:55:51.405Z,22.17
2019-03-25T03:58:55.496Z,26.63
2019-03-25T04:01:59.378Z,27.53
2019-03-25T04:05:03.216Z,29.53
2019-03-25T04:08:07.041Z,31.47
2019-03-25T04:11:10.912Z,36.27
2019-03-25T04:14:14.751Z,32.90
2019-03-25T04:17:18.627Z,33.13
2019-03-25T04:20:22.451Z,34.33
2019-03-25T04:23:26.315Z,34.27
2019-03-25T04:26:30.211Z,31.03
2019-03-25T04:29:34.051Z,33.07
2019-03-25T04:32:37.951Z,35.87
2019-03-25T04:35:41.761Z,36.33
2019-03-25T04:38:45.632Z,39.10
2019-03-25T04:41:49.501Z,39.40
2019-03-25T04:44:53.354Z,39.70
2019-03-25T04:47:57.406Z,41.20
2019-03-25T04:51:01.267Z,40.67
2019-03-25T04:54:05.320Z,42.33
2019-03-25T04:57:09.187Z,42.20
2019-03-25T05:00:13.572Z,40.93
2019-03-25T05:03:17.416Z,41.80
2019-03-25T05:06:21.306Z,42.73
2019-03-25T05:09:25.123Z,39.60
2019-03-25T05:12:28.982Z,41.10
2019-03-25T05:15:32.807Z,40.00
2019-03-25T05:18:36.660Z,42.20
2019-03-25T05:21:40.504Z,45.50
2019-03-25T05:24:44.381Z,45.13
2019-03-25T05:27:48.561Z,45.53
2019-03-25T05:30:52.380Z,46.07
2019-03-25T05:33:56.241Z,43.60
2019-03-25T05:37:00.094Z,44.10
2019-03-25T05:40:04.086Z,43.67
2019-03-25T05:43:07.927Z,43.57
2019-03-25T05:46:11.807Z,43.47
2019-03-25T05:49:15.637Z,40.63
2019-03-25T05:52:20.800Z,42.77
2019-03-25T05:55:24.707Z,40.50
2019-03-25T05:58:28.541Z,40.00
2019-03-25T06:01:32.531Z,40.30
2019-03-25T06:04:36.362Z,39.43
2019-03-25T06:07:40.210Z,38.83
2019-03-25T06:10:44.051Z,36.83
2019-03-25T06:13:47.946Z,37.57
2019-03-25T06:16:51.788Z,35.07
2019-03-25T06:19:55.660Z,34.50
2019-03-25T06:22:59.628Z,32.90
2019-03-25T06:26:03.479Z,33.57
2019-03-25T06:29:07.342Z,39.13
2019-03-25T06:32:11.192Z,34.67
2019-03-25T06:35:15.081Z,33.87
2019-03-25T06:38:18.930Z,33.17
2019-03-25T06:41:22.798Z,33.03
2019-03-25T06:44:26.636Z,33.43
2019-03-25T06:47:30.491Z,32.03
2019-03-25T06:50:34.314Z,31.07
2019-03-25T06:53:38.209Z,31.70
2019-03-25T06:56:42.032Z,34.77
2019-03-25T06:59:45.880Z,33.00
2019-03-25T07:02:49.730Z,33.57
2019-03-25T07:05:53.564Z,32.90
2019-03-25T07:08:57.419Z,33.47
2019-03-25T07:12:01.250Z,33.13
2019-03-25T07:15:07.857Z,31.40
2019-03-25T07:18:11.718Z,33.03
2019-03-25T07:21:15.549Z,30.27
2019-03-25T07:24:19.413Z,30.73
2019-03-25T07:27:24.349Z,29.27
2019-03-25T07:30:28.223Z,24.00
2019-03-25T07:33:32.107Z,23.53
2019-03-25T07:36:36.032Z,22.00
2019-03-25T07:39:39.878Z,22.70
2019-03-25T07:42:44.755Z,27.00
2019-03-25T07:45:48.582Z,26.87
2019-03-25T07:48:52.449Z,22.83
2019-03-25T07:51:56.301Z,18.83
2019-03-25T07:55:00.180Z,14.70
2019-03-25T07:58:04.103Z,16.03
2019-03-25T08:01:07.972Z,18.47
2019-03-25T08:04:11.879Z,18.93
2019-03-25T08:07:15.672Z,21.83
2019-03-25T08:10:31.218Z,27.77
2019-03-25T08:13:35.021Z,26.07
2019-03-25T08:16:38.887Z,28.83
2019-03-25T08:19:43.342Z,26.80
2019-03-25T08:22:47.166Z,22.50
2019-03-25T08:25:51.114Z,18.73
2019-03-25T08:28:54.943Z,18.53
2019-03-25T08:31:59.104Z,19.70
2019-03-25T08:35:03.130Z,20.93
2019-03-25T08:38:07.005Z,22.37
2019-03-25T08:41:10.858Z,21.03
2019-03-25T08:44:14.757Z,22.73
2019-03-25T08:47:18.596Z,22.10
2019-03-25T08:50:22.696Z,23.23
2019-03-25T08:53:26.579Z,21.53
2019-03-25T08:56:30.403Z,20.50
2019-03-25T08:59:34.310Z,20.80
2019-03-25T09:02:38.197Z,21.03
2019-03-25T09:05:42.195Z,20.60
2019-03-25T09:08:46.391Z,21.17
2019-03-25T09:11:51.617Z,19.13
2019-03-25T09:14:55.871Z,20.67
2019-03-25T09:17:59.753Z,19.80
2019-03-25T09:21:03.605Z,21.87
2019-03-25T09:24:07.489Z,21.13
2019-03-25T09:27:11.389Z,22.17
2019-03-25T09:30:18.175Z,21.97
2019-03-25T09:33:22.455Z,23.17
2019-03-25T09:36:26.501Z,23.43
2019-03-25T09:39:30.384Z,23.87
2019-03-25T09:42:34.266Z,22.80
2019-03-25T09:45:38.087Z,23.33
2019-03-25T09:48:42.071Z,21.70
2019-03-25T09:51:45.962Z,21.97
2019-03-25T09:54:49.822Z,21.57
2019-03-25T09:57:53.655Z,21.13
2019-03-25T10:00:57.538Z,23.40
2019-03-25T10:04:01.445Z,23.37
2019-03-25T10:07:05.274Z,23.20
2019-03-25T10:10:09.622Z,21.30
2019-03-25T10:13:13.431Z,21.43
2019-03-25T10:16:17.321Z,21.37
2019-03-25T10:19:21.177Z,21.47
2019-03-25T10:22:25.709Z,19.67
2019-03-25T10:25:29.721Z,19.80
2019-03-25T10:28:33.616Z,20.03
2019-03-25T10:31:37.621Z,18.83
2019-03-25T10:34:41.494Z,18.43
2019-03-25T10:37:45.740Z,17.90
2019-03-25T10:40:49.619Z,18.33
2019-03-25T10:43:53.508Z,16.47
2019-03-25T10:46:57.367Z,16.20
2019-03-25T10:50:01.223Z,17.73
2019-03-25T10:53:05.243Z,17.13
2019-03-25T10:56:09.132Z,14.47
2019-03-25T10:59:12.970Z,12.47
2019-03-25T11:02:16.841Z,13.07
2019-03-25T11:05:20.671Z,12.53
2019-03-25T11:08:26.086Z,12.47
2019-03-25T11:11:29.995Z,12.37
2019-03-25T11:14:33.855Z,12.90
2019-03-25T11:17:37.928Z,12.47
2019-03-25T11:20:41.761Z,11.93
2019-03-25T11:23:45.621Z,10.83
2019-03-25T11:26:49.461Z,11.23
2019-03-25T11:29:53.336Z,10.67
2019-03-25T11:32:57.171Z,11.97
2019-03-25T11:36:02.729Z,13.00
2019-03-25T11:39:08.544Z,12.40
2019-03-25T11:42:12.399Z,11.93
2019-03-25T11:45:16.407Z,12.77
2019-03-25T11:48:20.363Z,12.53
2019-03-25T11:51:24.233Z,13.93
2019-03-25T11:54:28.059Z,14.80
2019-03-25T11:57:31.939Z,14.73
2019-03-25T12:00:35.769Z,14.80
2019-03-25T12:03:39.632Z,12.40
2019-03-25T12:06:43.801Z,13.93
2019-03-25T12:09:47.906Z,17.97
2019-03-25T12:12:53.094Z,18.40
2019-03-25T12:15:56.921Z,19.20
2019-03-25T12:19:00.809Z,17.77
2019-03-25T12:22:04.719Z,18.33
2019-03-25T12:25:08.575Z,17.83
2019-03-25T12:28:13.705Z,19.13
2019-03-25T12:31:17.562Z,20.57
2019-03-25T12:34:21.512Z,18.97
2019-03-25T12:37:26.384Z,21.20
2019-03-25T12:40:30.377Z,21.17
2019-03-25T12:43:34.187Z,17.73
2019-03-25T12:46:38.078Z,17.00
2019-03-25T12:49:41.931Z,17.27
2019-03-25T12:52:45.850Z,20.57
2019-03-25T12:55:49.693Z,17.93
2019-03-25T12:58:53.585Z,17.77
2019-03-25T13:01:57.752Z,13.43
2019-03-25T13:05:01.685Z,9.80
2019-03-25T13:08:05.821Z,8.70
2019-03-25T13:11:09.697Z,11.33
2019-03-25T13:14:13.602Z,11.63
2019-03-25T13:17:17.766Z,16.70
2019-03-25T13:20:22.752Z,19.30
2019-03-25T13:23:26.991Z,18.87
2019-03-25T13:26:31.632Z,19.60
2019-03-25T13:29:35.511Z,20.53
2019-03-25T13:32:39.355Z,19.60
2019-03-25T13:35:43.238Z,20.07
2019-03-25T13:38:47.081Z,22.20
2019-03-25T13:41:50.946Z,35.33
2019-03-25T13:44:57.612Z,29.03
2019-03-25T13:48:00.591Z,143.80
2019-03-25T13:51:04.434Z,117.00
2019-03-25T13:54:08.355Z,107.43
2019-03-25T13:57:12.616Z,24.97
2019-03-25T14:00:18.448Z,19.73
2019-03-25T14:03:22.369Z,13.13
2019-03-25T14:06:26.201Z,14.17
2019-03-25T14:09:30.093Z,11.40
2019-03-25T14:12:33.912Z,12.90
2019-03-25T14:15:37.769Z,12.13
2019-03-25T14:18:41.594Z,12.00
2019-03-25T14:21:45.476Z,12.50
2019-03-25T14:24:49.354Z,14.43
2019-03-25T14:27:53.201Z,13.53
2019-03-25T14:30:57.072Z,14.70
2019-03-25T14:34:00.921Z,15.00
2019-03-25T14:37:04.902Z,17.10
2019-03-25T14:40:09.548Z,15.23
2019-03-25T14:43:13.411Z,17.33
2019-03-25T14:46:17.247Z,16.67
2019-03-25T14:49:21.131Z,15.90
2019-03-25T14:52:25.822Z,15.60
2019-03-25T14:55:29.746Z,17.33
2019-03-25T14:58:33.651Z,15.17
2019-03-25T15:01:37.481Z,14.50
2019-03-25T15:04:41.361Z,14.83
2019-03-25T15:07:45.170Z,14.30
2019-03-25T15:10:53.542Z,14.57
2019-03-25T15:13:54.632Z,16.13
2019-03-25T15:16:58.512Z,16.30
2019-03-25T15:20:02.346Z,16.93
2019-03-25T15:23:06.224Z,16.73
2019-03-25T15:26:10.122Z,15.60
2019-03-25T15:29:13.974Z,16.13
2019-03-25T15:32:18.721Z,15.63
2019-03-25T15:35:22.903Z,15.63
2019-03-25T15:38:27.078Z,15.87
2019-03-25T15:41:30.970Z,18.30
2019-03-25T15:44:34.866Z,16.73
2019-03-25T15:47:39.423Z,16.00
2019-03-25T15:50:43.424Z,16.90
2019-03-25T15:53:47.291Z,17.17
2019-03-25T15:56:51.147Z,19.47
2019-03-25T15:59:55.158Z,19.20
2019-03-25T16:02:59.231Z,19.67
2019-03-25T16:06:03.210Z,20.20
2019-03-25T16:09:08.596Z,22.90
2019-03-25T16:12:12.617Z,24.07
2019-03-25T16:15:34.221Z,23.63
2019-03-25T16:18:39.373Z,24.40
2019-03-25T16:21:43.182Z,23.10
2019-03-25T16:24:47.041Z,22.40
2019-03-25T16:27:52.338Z,23.20
2019-03-25T16:30:58.918Z,27.23
2019-03-25T16:34:01.701Z,27.30
2019-03-25T16:37:05.588Z,30.33
2019-03-25T16:40:09.558Z,33.13
2019-03-25T16:43:13.467Z,33.03
2019-03-25T16:46:17.402Z,27.67
2019-03-25T16:49:21.305Z,28.30
2019-03-25T16:52:26.295Z,20.73
2019-03-25T16:55:30.192Z,13.73
2019-03-25T16:58:34.151Z,13.70
2019-03-25T17:01:37.986Z,13.30
2019-03-25T17:04:42.017Z,9.93
2019-03-25T17:07:45.859Z,9.63
2019-03-25T17:10:49.721Z,9.60
2019-03-25T17:13:53.605Z,10.90
2019-03-25T17:16:57.498Z,11.57
2019-03-25T17:20:01.307Z,12.20
2019-03-25T17:23:05.452Z,13.23
2019-03-25T17:26:09.290Z,12.83
2019-03-25T17:29:14.668Z,15.23
2019-03-25T17:32:18.573Z,19.13
2019-03-25T17:35:22.391Z,20.33
2019-03-25T17:38:26.421Z,22.43
2019-03-25T17:41:30.272Z,23.63
2019-03-25T17:44:34.291Z,25.43
2019-03-25T17:47:38.435Z,22.10
2019-03-25T17:50:42.410Z,16.97
2019-03-25T17:53:46.297Z,17.60
2019-03-25T17:56:50.542Z,18.30
2019-03-25T17:59:54.432Z,20.77
2019-03-25T18:02:58.276Z,20.87
2019-03-25T18:06:02.127Z,26.40
2019-03-25T18:09:10.081Z,23.40
2019-03-25T18:12:13.924Z,21.67
2019-03-25T18:15:18.000Z,20.60
2019-03-25T18:18:21.875Z,20.80
2019-03-25T18:21:25.966Z,19.20
2019-03-25T18:24:29.890Z,17.07
2019-03-25T18:27:33.723Z,19.40
2019-03-25T18:30:37.791Z,18.83
2019-03-25T18:33:41.669Z,20.63
2019-03-25T18:36:45.542Z,25.32
2019-03-25T18:39:49.421Z,22.23
2019-03-25T18:42:53.467Z,20.83
2019-03-25T18:45:58.448Z,22.07
2019-03-25T18:49:02.389Z,16.60
2019-03-25T18:52:06.486Z,21.70
2019-03-25T18:55:10.498Z,21.57
2019-03-25T18:58:14.406Z,21.23
2019-03-25T19:01:18.281Z,22.30
2019-03-25T19:04:23.879Z,24.13
2019-03-25T19:07:27.790Z,24.40
2019-03-25T19:10:32.065Z,27.23
2019-03-25T19:13:35.989Z,29.53
2019-03-25T19:16:39.960Z,21.73
2019-03-25T19:19:43.916Z,27.60
2019-03-25T19:22:48.300Z,27.03
2019-03-25T19:25:52.301Z,28.10
2019-03-25T19:28:56.296Z,27.13
2019-03-25T19:32:06.617Z,29.50
2019-03-25T19:35:07.514Z,30.47
2019-03-25T19:38:11.478Z,30.20
2019-03-25T19:41:15.642Z,34.87
2019-03-25T19:44:19.740Z,29.60
2019-03-25T19:47:30.421Z,29.27
2019-03-25T19:50:34.408Z,28.13
2019-03-25T19:53:38.425Z,28.47
2019-03-25T19:56:42.666Z,27.90
2019-03-25T19:59:46.650Z,29.00
2019-03-25T20:02:50.555Z,28.63
2019-03-25T20:05:54.596Z,22.50
2019-03-25T20:08:58.507Z,21.23
2019-03-25T20:12:02.517Z,20.17
2019-03-25T20:15:09.592Z,21.97
2019-03-25T20:18:13.610Z,19.57
2019-03-25T20:21:17.498Z,19.47
2019-03-25T20:24:21.512Z,19.37
2019-03-25T20:27:25.942Z,18.47
2019-03-25T20:30:30.028Z,18.73
2019-03-25T20:33:34.579Z,19.00
2019-03-25T20:36:38.632Z,19.33
2019-03-25T20:39:42.667Z,16.53
2019-03-25T20:42:46.630Z,17.27
2019-03-25T20:45:50.623Z,16.13
2019-03-25T20:48:54.586Z,14.20
2019-03-25T20:51:58.543Z,14.37
2019-03-25T20:55:02.481Z,14.00
2019-03-25T21:01:22.408Z,12.60
2019-03-25T21:04:26.311Z,13.07
2019-03-25T21:07:30.326Z,15.13
2019-03-25T21:10:34.293Z,13.87
2019-03-25T21:13:38.304Z,14.13
2019-03-25T21:16:42.139Z,14.50
2019-03-25T21:19:46.161Z,14.20
2019-03-25T21:22:50.101Z,14.03
2019-03-25T21:25:53.960Z,13.33
2019-03-25T21:28:57.880Z,13.03
2019-03-25T21:32:01.877Z,12.23
2019-03-25T21:35:07.237Z,13.23
2019-03-25T21:38:11.158Z,14.73
2019-03-25T21:41:15.033Z,13.23
2019-03-25T21:44:18.914Z,16.40
2019-03-25T21:47:22.727Z,18.57
2019-03-25T21:50:26.781Z,16.97
2019-03-25T21:53:30.777Z,19.37
2019-03-25T21:56:34.740Z,20.67
2019-03-25T21:59:38.752Z,21.03
2019-03-25T22:02:42.582Z,20.67
2019-03-25T22:05:46.412Z,22.70
2019-03-25T22:08:50.343Z,23.80
2019-03-25T22:11:54.187Z,23.30
2019-03-25T22:14:58.090Z,22.63
2019-03-25T22:18:01.950Z,22.33
2019-03-25T22:21:05.827Z,27.73
2019-03-25T22:24:09.648Z,25.77
2019-03-25T22:27:13.581Z,32.87
2019-03-25T22:30:17.656Z,32.37
2019-03-25T22:33:26.170Z,29.33
2019-03-25T22:36:27.001Z,30.47
2019-03-25T22:39:30.928Z,25.57
2019-03-25T22:42:34.766Z,25.47
2019-03-25T22:45:38.613Z,24.67
2019-03-25T22:48:42.451Z,22.47
2019-03-25T22:51:46.347Z,22.37
2019-03-25T22:54:50.184Z,26.23
2019-03-25T22:57:54.076Z,27.13
2019-03-25T23:00:58.800Z,26.70
2019-03-25T23:04:02.683Z,23.83
2019-03-25T23:07:06.525Z,24.00
2019-03-25T23:10:10.375Z,24.43
2019-03-25T23:13:14.251Z,25.20
2019-03-25T23:16:18.114Z,24.20
2019-03-25T23:19:21.981Z,23.97
2019-03-25T23:22:26.781Z,22.27
2019-03-25T23:25:30.625Z,23.30
2019-03-25T23:28:34.476Z,27.83
2019-03-25T23:31:38.308Z,34.43
2019-03-25T23:34:42.197Z,37.13
2019-03-25T23:37:46.111Z,34.43
2019-03-25T23:40:49.986Z,29.83
2019-03-25T23:43:53.806Z,29.40
2019-03-25T23:46:57.685Z,26.10
2019-03-25T23:50:01.527Z,22.27
2019-03-25T23:53:05.378Z,22.57
2019-03-25T23:56:09.221Z,22.73
2019-03-25T23:59:13.271Z,21.47
